sensor_id;sensor_type;location;lat;lon;timestamp;temperature;humidity
37380;DHT22;23252;-33.992;18.480;2023-04-15T00:01:13;15.30;99.90
37380;DHT22;23252;-33.992;18.480;2023-04-15T00:03:44;15.40;99.90
37380;DHT22;23252;-33.992;18.480;2023-04-15T00:06:11;15.40;99.90
37380;DHT22;23252;-33.992;18.480;2023-04-15T00:08:38;15.40;99.90
37380;DHT22;23252;-33.992;18.480;2023-04-15T00:11:05;15.40;99.90
37380;DHT22;23252;-33.992;18.480;2023-04-15T00:13:32;15.40;99.90
37380;DHT22;23252;-33.992;18.480;2023-04-15T00:16:00;15.50;99.90
37380;DHT22;23252;-33.992;18.480;2023-04-15T00:18:27;15.40;99.90
37380;DHT22;23252;-33.992;18.480;2023-04-15T00:20:54;15.40;99.90
37380;DHT22;23252;-33.992;18.480;2023-04-15T00:23:21;15.50;99.90
37380;DHT22;23252;-33.992;18.480;2023-04-15T00:25:47;15.50;99.90
37380;DHT22;23252;-33.992;18.480;2023-04-15T00:28:14;15.50;99.90
37380;DHT22;23252;-33.992;18.480;2023-04-15T00:30:41;15.50;99.90
37380;DHT22;23252;-33.992;18.480;2023-04-15T00:33:07;15.50;99.90
37380;DHT22;23252;-33.992;18.480;2023-04-15T00:35:35;15.50;99.90
37380;DHT22;23252;-33.992;18.480;2023-04-15T00:38:05;15.50;99.90
37380;DHT22;23252;-33.992;18.480;2023-04-15T00:40:35;15.50;99.90
37380;DHT22;23252;-33.992;18.480;2023-04-15T00:43:02;15.50;99.90
37380;DHT22;23252;-33.992;18.480;2023-04-15T00:45:33;15.50;99.90
37380;DHT22;23252;-33.992;18.480;2023-04-15T00:47:59;15.50;99.90
37380;DHT22;23252;-33.992;18.480;2023-04-15T00:50:26;15.40;99.90
37380;DHT22;23252;-33.992;18.480;2023-04-15T00:52:53;15.50;99.90
37380;DHT22;23252;-33.992;18.480;2023-04-15T00:55:19;15.50;99.90
37380;DHT22;23252;-33.992;18.480;2023-04-15T00:57:46;15.40;99.90
37380;DHT22;23252;-33.992;18.480;2023-04-15T01:00:13;15.30;99.90
37380;DHT22;23252;-33.992;18.480;2023-04-15T01:02:39;15.30;99.90
37380;DHT22;23252;-33.992;18.480;2023-04-15T01:05:06;15.30;99.90
37380;DHT22;23252;-33.992;18.480;2023-04-15T01:07:33;15.30;99.90
37380;DHT22;23252;-33.992;18.480;2023-04-15T01:10:00;15.20;99.90
37380;DHT22;23252;-33.992;18.480;2023-04-15T01:12:27;15.20;99.90
37380;DHT22;23252;-33.992;18.480;2023-04-15T01:14:54;15.20;99.90
37380;DHT22;23252;-33.992;18.480;2023-04-15T01:17:23;15.20;99.90
37380;DHT22;23252;-33.992;18.480;2023-04-15T01:19:50;15.20;99.90
37380;DHT22;23252;-33.992;18.480;2023-04-15T01:22:17;15.20;99.90
37380;DHT22;23252;-33.992;18.480;2023-04-15T01:24:54;15.30;99.90
37380;DHT22;23252;-33.992;18.480;2023-04-15T01:27:22;15.20;99.90
37380;DHT22;23252;-33.992;18.480;2023-04-15T01:29:49;15.20;99.90
37380;DHT22;23252;-33.992;18.480;2023-04-15T01:32:15;15.20;99.90
37380;DHT22;23252;-33.992;18.480;2023-04-15T01:34:42;15.30;99.90
37380;DHT22;23252;-33.992;18.480;2023-04-15T01:37:08;15.30;99.90
37380;DHT22;23252;-33.992;18.480;2023-04-15T01:39:35;15.30;99.90
37380;DHT22;23252;-33.992;18.480;2023-04-15T01:42:01;15.30;99.90
37380;DHT22;23252;-33.992;18.480;2023-04-15T01:44:29;15.30;99.90
37380;DHT22;23252;-33.992;18.480;2023-04-15T01:46:55;15.30;99.90
37380;DHT22;23252;-33.992;18.480;2023-04-15T01:49:22;15.30;99.90
37380;DHT22;23252;-33.992;18.480;2023-04-15T01:51:48;15.30;99.90
37380;DHT22;23252;-33.992;18.480;2023-04-15T01:54:15;15.30;99.90
37380;DHT22;23252;-33.992;18.480;2023-04-15T01:56:41;15.30;99.90
37380;DHT22;23252;-33.992;18.480;2023-04-15T01:59:09;15.30;99.90
37380;DHT22;23252;-33.992;18.480;2023-04-15T02:01:35;15.20;99.90
37380;DHT22;23252;-33.992;18.480;2023-04-15T06:15:42;15.70;99.90
37380;DHT22;23252;-33.992;18.480;2023-04-15T06:18:08;16.20;99.90
37380;DHT22;23252;-33.992;18.480;2023-04-15T06:20:36;16.20;99.90
37380;DHT22;23252;-33.992;18.480;2023-04-15T06:23:03;16.20;99.90
37380;DHT22;23252;-33.992;18.480;2023-04-15T06:25:29;16.20;99.90
37380;DHT22;23252;-33.992;18.480;2023-04-15T06:27:56;16.30;99.90
37380;DHT22;23252;-33.992;18.480;2023-04-15T06:30:23;16.30;99.90
37380;DHT22;23252;-33.992;18.480;2023-04-15T06:32:49;16.40;99.90
37380;DHT22;23252;-33.992;18.480;2023-04-15T06:35:16;16.50;99.90
37380;DHT22;23252;-33.992;18.480;2023-04-15T06:37:42;16.50;99.90
37380;DHT22;23252;-33.992;18.480;2023-04-15T06:40:09;16.60;99.90
37380;DHT22;23252;-33.992;18.480;2023-04-15T06:42:36;16.70;99.90
37380;DHT22;23252;-33.992;18.480;2023-04-15T06:45:03;16.70;99.90
37380;DHT22;23252;-33.992;18.480;2023-04-15T06:47:30;16.80;99.90
37380;DHT22;23252;-33.992;18.480;2023-04-15T06:49:57;16.80;99.90
37380;DHT22;23252;-33.992;18.480;2023-04-15T06:52:23;17.00;99.90
37380;DHT22;23252;-33.992;18.480;2023-04-15T06:54:50;17.00;99.90
37380;DHT22;23252;-33.992;18.480;2023-04-15T06:57:16;17.00;99.90
37380;DHT22;23252;-33.992;18.480;2023-04-15T06:59:43;17.10;99.90
37380;DHT22;23252;-33.992;18.480;2023-04-15T07:02:11;17.20;99.90
37380;DHT22;23252;-33.992;18.480;2023-04-15T07:04:39;17.30;99.90
37380;DHT22;23252;-33.992;18.480;2023-04-15T07:07:05;17.30;99.90
37380;DHT22;23252;-33.992;18.480;2023-04-15T07:09:32;17.30;99.90
37380;DHT22;23252;-33.992;18.480;2023-04-15T07:11:59;17.40;99.90
37380;DHT22;23252;-33.992;18.480;2023-04-15T07:14:25;17.40;99.90
37380;DHT22;23252;-33.992;18.480;2023-04-15T07:16:52;17.40;99.90
37380;DHT22;23252;-33.992;18.480;2023-04-15T07:19:19;17.50;99.90
37380;DHT22;23252;-33.992;18.480;2023-04-15T07:21:46;17.50;99.90
37380;DHT22;23252;-33.992;18.480;2023-04-15T07:24:12;17.60;99.90
37380;DHT22;23252;-33.992;18.480;2023-04-15T07:26:43;17.60;99.90
37380;DHT22;23252;-33.992;18.480;2023-04-15T07:29:10;17.60;99.90
37380;DHT22;23252;-33.992;18.480;2023-04-15T07:31:39;17.60;99.90
37380;DHT22;23252;-33.992;18.480;2023-04-15T07:34:07;17.70;99.90
37380;DHT22;23252;-33.992;18.480;2023-04-15T07:36:33;17.80;99.90
37380;DHT22;23252;-33.992;18.480;2023-04-15T07:39:00;17.80;99.90
37380;DHT22;23252;-33.992;18.480;2023-04-15T07:41:28;17.80;99.90
37380;DHT22;23252;-33.992;18.480;2023-04-15T07:43:59;17.80;99.90
37380;DHT22;23252;-33.992;18.480;2023-04-15T07:46:25;17.90;99.90
37380;DHT22;23252;-33.992;18.480;2023-04-15T07:48:55;17.90;99.90
37380;DHT22;23252;-33.992;18.480;2023-04-15T07:51:22;17.90;99.90
37380;DHT22;23252;-33.992;18.480;2023-04-15T07:53:49;18.00;99.90
37380;DHT22;23252;-33.992;18.480;2023-04-15T07:56:15;18.00;99.90
37380;DHT22;23252;-33.992;18.480;2023-04-15T07:58:42;18.10;99.90
37380;DHT22;23252;-33.992;18.480;2023-04-15T08:01:09;18.10;99.90
37380;DHT22;23252;-33.992;18.480;2023-04-15T08:03:38;18.10;99.90
37380;DHT22;23252;-33.992;18.480;2023-04-15T08:06:05;18.10;99.90
37380;DHT22;23252;-33.992;18.480;2023-04-15T08:08:32;18.10;99.90
37380;DHT22;23252;-33.992;18.480;2023-04-15T08:10:58;18.20;99.90
37380;DHT22;23252;-33.992;18.480;2023-04-15T08:13:25;18.10;99.90
37380;DHT22;23252;-33.992;18.480;2023-04-15T08:16:15;18.20;99.90
37380;DHT22;23252;-33.992;18.480;2023-04-15T08:18:42;18.30;99.90
37380;DHT22;23252;-33.992;18.480;2023-04-15T08:21:09;18.30;99.90
37380;DHT22;23252;-33.992;18.480;2023-04-15T08:23:36;18.40;99.90
37380;DHT22;23252;-33.992;18.480;2023-04-15T08:26:03;18.40;99.90
37380;DHT22;23252;-33.992;18.480;2023-04-15T08:28:29;18.40;99.90
37380;DHT22;23252;-33.992;18.480;2023-04-15T08:30:56;18.40;99.90
37380;DHT22;23252;-33.992;18.480;2023-04-15T08:33:23;18.40;99.90
37380;DHT22;23252;-33.992;18.480;2023-04-15T08:35:49;18.40;99.90
37380;DHT22;23252;-33.992;18.480;2023-04-15T08:38:16;18.50;99.90
37380;DHT22;23252;-33.992;18.480;2023-04-15T08:40:46;18.50;99.90
37380;DHT22;23252;-33.992;18.480;2023-04-15T08:43:20;18.50;99.90
37380;DHT22;23252;-33.992;18.480;2023-04-15T08:45:49;18.50;99.90
37380;DHT22;23252;-33.992;18.480;2023-04-15T08:48:17;18.50;99.90
37380;DHT22;23252;-33.992;18.480;2023-04-15T08:50:45;18.60;99.90
37380;DHT22;23252;-33.992;18.480;2023-04-15T08:53:12;18.50;99.90
37380;DHT22;23252;-33.992;18.480;2023-04-15T08:55:43;18.50;99.90
37380;DHT22;23252;-33.992;18.480;2023-04-15T08:58:14;18.60;99.90
37380;DHT22;23252;-33.992;18.480;2023-04-15T09:00:41;18.60;99.90
37380;DHT22;23252;-33.992;18.480;2023-04-15T09:03:08;18.60;99.90
37380;DHT22;23252;-33.992;18.480;2023-04-15T09:05:36;18.70;99.90
37380;DHT22;23252;-33.992;18.480;2023-04-15T09:08:03;18.70;99.90
37380;DHT22;23252;-33.992;18.480;2023-04-15T09:10:31;18.70;99.90
37380;DHT22;23252;-33.992;18.480;2023-04-15T09:12:58;18.70;99.90
37380;DHT22;23252;-33.992;18.480;2023-04-15T09:15:25;18.70;99.90
37380;DHT22;23252;-33.992;18.480;2023-04-15T09:17:55;18.80;99.90
37380;DHT22;23252;-33.992;18.480;2023-04-15T09:20:22;18.90;99.90
37380;DHT22;23252;-33.992;18.480;2023-04-15T09:22:49;18.90;99.90
37380;DHT22;23252;-33.992;18.480;2023-04-15T09:28:00;18.90;99.90
37380;DHT22;23252;-33.992;18.480;2023-04-15T09:30:28;19.00;99.90
37380;DHT22;23252;-33.992;18.480;2023-04-15T09:32:58;19.00;99.90
37380;DHT22;23252;-33.992;18.480;2023-04-15T09:35:26;19.00;99.90
37380;DHT22;23252;-33.992;18.480;2023-04-15T09:38:04;19.10;99.90
37380;DHT22;23252;-33.992;18.480;2023-04-15T09:40:35;19.20;99.90
37380;DHT22;23252;-33.992;18.480;2023-04-15T09:43:03;19.20;99.90
37380;DHT22;23252;-33.992;18.480;2023-04-15T09:45:31;19.20;99.90
37380;DHT22;23252;-33.992;18.480;2023-04-15T09:50:46;19.30;99.90
37380;DHT22;23252;-33.992;18.480;2023-04-15T09:53:18;19.30;99.90
37380;DHT22;23252;-33.992;18.480;2023-04-15T09:55:50;19.50;99.90
37380;DHT22;23252;-33.992;18.480;2023-04-15T09:58:21;19.50;99.90
37380;DHT22;23252;-33.992;18.480;2023-04-15T10:00:50;19.50;99.90
37380;DHT22;23252;-33.992;18.480;2023-04-15T10:03:22;19.50;99.90
37380;DHT22;23252;-33.992;18.480;2023-04-15T10:05:51;19.50;99.90
37380;DHT22;23252;-33.992;18.480;2023-04-15T10:08:20;19.40;99.90
37380;DHT22;23252;-33.992;18.480;2023-04-15T10:10:48;19.50;99.90
37380;DHT22;23252;-33.992;18.480;2023-04-15T10:13:28;19.50;99.90
37380;DHT22;23252;-33.992;18.480;2023-04-15T10:16:01;19.50;99.90
37380;DHT22;23252;-33.992;18.480;2023-04-15T10:18:33;19.60;99.90
37380;DHT22;23252;-33.992;18.480;2023-04-15T10:21:00;19.60;99.90
37380;DHT22;23252;-33.992;18.480;2023-04-15T10:23:27;19.70;99.90
37380;DHT22;23252;-33.992;18.480;2023-04-15T10:25:54;19.60;99.90
37380;DHT22;23252;-33.992;18.480;2023-04-15T10:28:21;19.60;99.90
37380;DHT22;23252;-33.992;18.480;2023-04-15T10:30:48;19.70;99.90
37380;DHT22;23252;-33.992;18.480;2023-04-15T10:33:17;19.70;99.90
37380;DHT22;23252;-33.992;18.480;2023-04-15T10:35:46;19.70;99.90
37380;DHT22;23252;-33.992;18.480;2023-04-15T10:38:33;19.70;99.90
37380;DHT22;23252;-33.992;18.480;2023-04-15T10:41:19;19.60;99.90
37380;DHT22;23252;-33.992;18.480;2023-04-15T10:43:53;19.60;99.90
37380;DHT22;23252;-33.992;18.480;2023-04-15T10:49:12;19.60;99.90
37380;DHT22;23252;-33.992;18.480;2023-04-15T10:51:51;19.70;99.90
37380;DHT22;23252;-33.992;18.480;2023-04-15T10:57:06;19.70;99.90
37380;DHT22;23252;-33.992;18.480;2023-04-15T11:02:44;19.60;99.90
37380;DHT22;23252;-33.992;18.480;2023-04-15T11:05:13;19.80;99.90
37380;DHT22;23252;-33.992;18.480;2023-04-15T11:12:46;20.00;99.90
37380;DHT22;23252;-33.992;18.480;2023-04-15T11:15:29;20.00;99.90
37380;DHT22;23252;-33.992;18.480;2023-04-15T11:17:58;20.00;99.90
37380;DHT22;23252;-33.992;18.480;2023-04-15T11:20:25;20.10;99.90
37380;DHT22;23252;-33.992;18.480;2023-04-15T11:22:53;20.20;99.90
37380;DHT22;23252;-33.992;18.480;2023-04-15T11:25:24;20.20;99.90
37380;DHT22;23252;-33.992;18.480;2023-04-15T11:27:52;20.30;99.90
37380;DHT22;23252;-33.992;18.480;2023-04-15T11:30:25;20.20;99.90
37380;DHT22;23252;-33.992;18.480;2023-04-15T11:32:53;20.30;99.90
37380;DHT22;23252;-33.992;18.480;2023-04-15T11:35:20;20.50;99.90
37380;DHT22;23252;-33.992;18.480;2023-04-15T11:37:48;20.70;99.90
37380;DHT22;23252;-33.992;18.480;2023-04-15T11:40:16;20.80;99.90
37380;DHT22;23252;-33.992;18.480;2023-04-15T11:42:43;20.80;99.90
37380;DHT22;23252;-33.992;18.480;2023-04-15T11:45:10;20.90;99.90
37380;DHT22;23252;-33.992;18.480;2023-04-15T11:47:38;21.10;99.90
37380;DHT22;23252;-33.992;18.480;2023-04-15T11:53:02;21.30;99.90
37380;DHT22;23252;-33.992;18.480;2023-04-15T11:55:30;21.70;99.90
37380;DHT22;23252;-33.992;18.480;2023-04-15T11:58:10;22.00;99.90
37380;DHT22;23252;-33.992;18.480;2023-04-15T12:00:38;22.30;99.90
37380;DHT22;23252;-33.992;18.480;2023-04-15T12:03:15;22.50;99.90
37380;DHT22;23252;-33.992;18.480;2023-04-15T14:15:01;20.10;99.90
37380;DHT22;23252;-33.992;18.480;2023-04-15T14:17:28;20.00;99.90
37380;DHT22;23252;-33.992;18.480;2023-04-15T14:19:54;19.90;99.90
37380;DHT22;23252;-33.992;18.480;2023-04-15T14:22:21;19.90;99.90
37380;DHT22;23252;-33.992;18.480;2023-04-15T14:24:47;19.80;99.90
37380;DHT22;23252;-33.992;18.480;2023-04-15T14:27:14;19.80;99.90
37380;DHT22;23252;-33.992;18.480;2023-04-15T14:29:41;19.70;99.90
37380;DHT22;23252;-33.992;18.480;2023-04-15T14:32:08;19.70;99.90
37380;DHT22;23252;-33.992;18.480;2023-04-15T14:34:34;19.70;99.90
37380;DHT22;23252;-33.992;18.480;2023-04-15T14:37:04;19.70;99.90
37380;DHT22;23252;-33.992;18.480;2023-04-15T14:39:30;19.60;99.90
37380;DHT22;23252;-33.992;18.480;2023-04-15T14:41:57;19.50;99.90
37380;DHT22;23252;-33.992;18.480;2023-04-15T14:44:24;19.50;99.90
37380;DHT22;23252;-33.992;18.480;2023-04-15T14:46:51;19.50;99.90
37380;DHT22;23252;-33.992;18.480;2023-04-15T14:49:18;19.50;99.90
37380;DHT22;23252;-33.992;18.480;2023-04-15T14:51:45;19.40;99.90
37380;DHT22;23252;-33.992;18.480;2023-04-15T14:54:12;19.40;99.90
37380;DHT22;23252;-33.992;18.480;2023-04-15T14:56:38;19.30;99.90
37380;DHT22;23252;-33.992;18.480;2023-04-15T14:59:05;19.30;99.90
37380;DHT22;23252;-33.992;18.480;2023-04-15T15:01:32;19.30;99.90
37380;DHT22;23252;-33.992;18.480;2023-04-15T15:03:58;19.30;99.90
37380;DHT22;23252;-33.992;18.480;2023-04-15T15:06:25;19.20;99.90
37380;DHT22;23252;-33.992;18.480;2023-04-15T15:08:51;19.10;99.90
37380;DHT22;23252;-33.992;18.480;2023-04-15T15:11:18;19.10;99.90
37380;DHT22;23252;-33.992;18.480;2023-04-15T15:13:44;19.10;99.90
37380;DHT22;23252;-33.992;18.480;2023-04-15T15:16:11;19.10;99.90
37380;DHT22;23252;-33.992;18.480;2023-04-15T15:18:38;19.00;99.90
37380;DHT22;23252;-33.992;18.480;2023-04-15T15:21:04;19.00;99.90
37380;DHT22;23252;-33.992;18.480;2023-04-15T15:23:31;18.90;99.90
37380;DHT22;23252;-33.992;18.480;2023-04-15T15:25:58;18.90;99.90
37380;DHT22;23252;-33.992;18.480;2023-04-15T15:28:25;18.80;99.90
37380;DHT22;23252;-33.992;18.480;2023-04-15T15:30:51;18.80;99.90
37380;DHT22;23252;-33.992;18.480;2023-04-15T15:33:18;18.80;99.90
37380;DHT22;23252;-33.992;18.480;2023-04-15T15:35:45;18.70;99.90
37380;DHT22;23252;-33.992;18.480;2023-04-15T15:38:12;18.70;99.90
37380;DHT22;23252;-33.992;18.480;2023-04-15T15:40:38;18.70;99.90
37380;DHT22;23252;-33.992;18.480;2023-04-15T15:43:05;18.60;99.90
37380;DHT22;23252;-33.992;18.480;2023-04-15T15:45:31;18.60;99.90
37380;DHT22;23252;-33.992;18.480;2023-04-15T15:47:58;18.50;99.90
37380;DHT22;23252;-33.992;18.480;2023-04-15T15:50:25;18.40;99.90
37380;DHT22;23252;-33.992;18.480;2023-04-15T15:52:51;18.30;99.90
37380;DHT22;23252;-33.992;18.480;2023-04-15T15:55:18;18.40;99.90
37380;DHT22;23252;-33.992;18.480;2023-04-15T15:57:44;18.30;99.90
37380;DHT22;23252;-33.992;18.480;2023-04-15T16:00:11;18.20;99.90
37380;DHT22;23252;-33.992;18.480;2023-04-15T16:02:38;18.20;99.90
37380;DHT22;23252;-33.992;18.480;2023-04-15T16:05:05;18.20;99.90
37380;DHT22;23252;-33.992;18.480;2023-04-15T16:07:31;18.10;99.90
37380;DHT22;23252;-33.992;18.480;2023-04-15T16:09:58;18.10;99.90
37380;DHT22;23252;-33.992;18.480;2023-04-15T16:12:24;18.00;99.90
37380;DHT22;23252;-33.992;18.480;2023-04-15T16:14:50;18.00;99.90
37380;DHT22;23252;-33.992;18.480;2023-04-15T16:17:17;17.90;99.90
37380;DHT22;23252;-33.992;18.480;2023-04-15T16:19:43;17.90;99.90
37380;DHT22;23252;-33.992;18.480;2023-04-15T16:22:10;17.90;99.90
37380;DHT22;23252;-33.992;18.480;2023-04-15T16:24:37;17.90;99.90
37380;DHT22;23252;-33.992;18.480;2023-04-15T16:27:03;17.80;99.90
37380;DHT22;23252;-33.992;18.480;2023-04-15T16:29:30;17.70;99.90
37380;DHT22;23252;-33.992;18.480;2023-04-15T16:31:56;17.70;99.90
37380;DHT22;23252;-33.992;18.480;2023-04-15T16:34:23;17.70;99.90
37380;DHT22;23252;-33.992;18.480;2023-04-15T16:36:50;17.70;99.90
37380;DHT22;23252;-33.992;18.480;2023-04-15T16:39:16;17.70;99.90
37380;DHT22;23252;-33.992;18.480;2023-04-15T16:41:44;17.70;99.90
37380;DHT22;23252;-33.992;18.480;2023-04-15T16:44:10;17.60;99.90
37380;DHT22;23252;-33.992;18.480;2023-04-15T16:46:37;17.60;99.90
37380;DHT22;23252;-33.992;18.480;2023-04-15T16:49:03;17.60;99.90
37380;DHT22;23252;-33.992;18.480;2023-04-15T16:51:30;17.60;99.90
37380;DHT22;23252;-33.992;18.480;2023-04-15T16:53:57;17.60;99.90
37380;DHT22;23252;-33.992;18.480;2023-04-15T16:56:23;17.60;99.90
37380;DHT22;23252;-33.992;18.480;2023-04-15T16:58:50;17.60;99.90
37380;DHT22;23252;-33.992;18.480;2023-04-15T17:01:16;17.60;99.90
37380;DHT22;23252;-33.992;18.480;2023-04-15T17:03:43;17.50;99.90
37380;DHT22;23252;-33.992;18.480;2023-04-15T17:06:10;17.50;99.90
37380;DHT22;23252;-33.992;18.480;2023-04-15T17:08:37;17.50;99.90
37380;DHT22;23252;-33.992;18.480;2023-04-15T17:11:03;17.50;99.90
37380;DHT22;23252;-33.992;18.480;2023-04-15T17:13:30;17.50;99.90
37380;DHT22;23252;-33.992;18.480;2023-04-15T17:15:56;17.50;99.90
37380;DHT22;23252;-33.992;18.480;2023-04-15T17:18:23;17.50;99.90
37380;DHT22;23252;-33.992;18.480;2023-04-15T17:20:49;17.50;99.90
37380;DHT22;23252;-33.992;18.480;2023-04-15T17:23:16;17.40;99.90
37380;DHT22;23252;-33.992;18.480;2023-04-15T17:25:42;17.50;99.90
37380;DHT22;23252;-33.992;18.480;2023-04-15T17:28:09;17.50;99.90
37380;DHT22;23252;-33.992;18.480;2023-04-15T17:30:38;17.50;99.90
37380;DHT22;23252;-33.992;18.480;2023-04-15T17:33:08;17.50;99.90
37380;DHT22;23252;-33.992;18.480;2023-04-15T17:35:34;17.40;99.90
37380;DHT22;23252;-33.992;18.480;2023-04-15T17:38:01;17.40;99.90
37380;DHT22;23252;-33.992;18.480;2023-04-15T17:40:30;17.40;99.90
37380;DHT22;23252;-33.992;18.480;2023-04-15T17:42:57;17.40;99.90
37380;DHT22;23252;-33.992;18.480;2023-04-15T17:45:24;17.40;99.90
37380;DHT22;23252;-33.992;18.480;2023-04-15T17:47:50;17.40;99.90
37380;DHT22;23252;-33.992;18.480;2023-04-15T17:50:17;17.40;99.90
37380;DHT22;23252;-33.992;18.480;2023-04-15T17:52:43;17.40;99.90
37380;DHT22;23252;-33.992;18.480;2023-04-15T17:55:10;17.40;99.90
37380;DHT22;23252;-33.992;18.480;2023-04-15T17:57:36;17.40;99.90
37380;DHT22;23252;-33.992;18.480;2023-04-15T18:00:04;17.40;99.90
37380;DHT22;23252;-33.992;18.480;2023-04-15T18:02:30;17.30;99.90
37380;DHT22;23252;-33.992;18.480;2023-04-15T18:04:57;17.40;99.90
37380;DHT22;23252;-33.992;18.480;2023-04-15T22:16:06;16.60;99.90
37380;DHT22;23252;-33.992;18.480;2023-04-15T22:18:33;16.60;99.90
37380;DHT22;23252;-33.992;18.480;2023-04-15T22:21:00;16.60;99.90
37380;DHT22;23252;-33.992;18.480;2023-04-15T22:23:27;16.60;99.90
37380;DHT22;23252;-33.992;18.480;2023-04-15T22:25:53;16.60;99.90
37380;DHT22;23252;-33.992;18.480;2023-04-15T22:28:20;16.60;99.90
37380;DHT22;23252;-33.992;18.480;2023-04-15T22:30:47;16.60;99.90
37380;DHT22;23252;-33.992;18.480;2023-04-15T22:33:13;16.60;99.90
37380;DHT22;23252;-33.992;18.480;2023-04-15T22:35:40;16.60;99.90
37380;DHT22;23252;-33.992;18.480;2023-04-15T22:38:06;16.60;99.90
37380;DHT22;23252;-33.992;18.480;2023-04-15T22:40:33;16.60;99.90
37380;DHT22;23252;-33.992;18.480;2023-04-15T22:42:59;16.60;99.90
37380;DHT22;23252;-33.992;18.480;2023-04-15T22:45:26;16.60;99.90
37380;DHT22;23252;-33.992;18.480;2023-04-15T22:47:52;16.60;99.90
37380;DHT22;23252;-33.992;18.480;2023-04-15T22:50:19;16.60;99.90
37380;DHT22;23252;-33.992;18.480;2023-04-15T22:52:46;16.50;99.90
37380;DHT22;23252;-33.992;18.480;2023-04-15T22:55:13;16.60;99.90
37380;DHT22;23252;-33.992;18.480;2023-04-15T22:57:40;16.60;99.90
37380;DHT22;23252;-33.992;18.480;2023-04-15T23:00:07;16.50;99.90
37380;DHT22;23252;-33.992;18.480;2023-04-15T23:02:33;16.60;99.90
37380;DHT22;23252;-33.992;18.480;2023-04-15T23:05:00;16.60;99.90
37380;DHT22;23252;-33.992;18.480;2023-04-15T23:07:27;16.60;99.90
37380;DHT22;23252;-33.992;18.480;2023-04-15T23:09:53;16.60;99.90
37380;DHT22;23252;-33.992;18.480;2023-04-15T23:12:20;16.60;99.90
37380;DHT22;23252;-33.992;18.480;2023-04-15T23:14:46;16.60;99.90
37380;DHT22;23252;-33.992;18.480;2023-04-15T23:17:13;16.60;99.90
37380;DHT22;23252;-33.992;18.480;2023-04-15T23:19:39;16.60;99.90
37380;DHT22;23252;-33.992;18.480;2023-04-15T23:22:06;16.50;99.90
37380;DHT22;23252;-33.992;18.480;2023-04-15T23:24:35;16.60;99.90
37380;DHT22;23252;-33.992;18.480;2023-04-15T23:27:01;16.60;99.90
37380;DHT22;23252;-33.992;18.480;2023-04-15T23:29:29;16.60;99.90
37380;DHT22;23252;-33.992;18.480;2023-04-15T23:31:56;16.60;99.90
37380;DHT22;23252;-33.992;18.480;2023-04-15T23:34:22;16.60;99.90
37380;DHT22;23252;-33.992;18.480;2023-04-15T23:36:49;16.60;99.90
37380;DHT22;23252;-33.992;18.480;2023-04-15T23:39:15;16.60;99.90
37380;DHT22;23252;-33.992;18.480;2023-04-15T23:41:42;16.70;99.90
37380;DHT22;23252;-33.992;18.480;2023-04-15T23:44:08;16.70;99.90
37380;DHT22;23252;-33.992;18.480;2023-04-15T23:46:35;16.60;99.90
37380;DHT22;23252;-33.992;18.480;2023-04-15T23:49:01;16.60;99.90
37380;DHT22;23252;-33.992;18.480;2023-04-15T23:51:27;16.60;99.90
37380;DHT22;23252;-33.992;18.480;2023-04-15T23:53:54;16.60;99.90
37380;DHT22;23252;-33.992;18.480;2023-04-15T23:56:21;16.60;99.90
37380;DHT22;23252;-33.992;18.480;2023-04-15T23:58:47;16.60;99.90
